sensor_id;sensor_type;location;lat;lon;timestamp;P1;durP1;ratioP1;P2;durP2;ratioP2
50086;SDS011;35967;50.718;7.050;2022-11-20T00:07:59;36.30;;;17.60;;
50086;SDS011;35967;50.718;7.050;2022-11-20T00:18:03;39.97;;;19.10;;
50086;SDS011;35967;50.718;7.050;2022-11-20T00:28:07;37.53;;;18.30;;
50086;SDS011;35967;50.718;7.050;2022-11-20T00:38:10;38.67;;;17.00;;
50086;SDS011;35967;50.718;7.050;2022-11-20T00:48:14;37.60;;;18.67;;
50086;SDS011;35967;50.718;7.050;2022-11-20T00:58:18;37.10;;;18.47;;
50086;SDS011;35967;50.718;7.050;2022-11-20T01:08:22;36.50;;;18.87;;
50086;SDS011;35967;50.718;7.050;2022-11-20T01:18:25;37.40;;;18.00;;
50086;SDS011;35967;50.718;7.050;2022-11-20T01:28:30;37.53;;;17.10;;
50086;SDS011;35967;50.718;7.050;2022-11-20T01:38:34;37.23;;;18.13;;
50086;SDS011;35967;50.718;7.050;2022-11-20T01:48:39;36.00;;;17.57;;
50086;SDS011;35967;50.718;7.050;2022-11-20T01:58:50;37.53;;;18.23;;
50086;SDS011;35967;50.718;7.050;2022-11-20T02:08:57;34.10;;;16.87;;
50086;SDS011;35967;50.718;7.050;2022-11-20T02:19:00;32.07;;;16.80;;
50086;SDS011;35967;50.718;7.050;2022-11-20T02:29:06;33.57;;;17.07;;
50086;SDS011;35967;50.718;7.050;2022-11-20T02:39:09;34.50;;;16.43;;
50086;SDS011;35967;50.718;7.050;2022-11-20T02:49:19;35.67;;;17.50;;
50086;SDS011;35967;50.718;7.050;2022-11-20T02:59:23;39.53;;;18.30;;
50086;SDS011;35967;50.718;7.050;2022-11-20T03:09:27;45.50;;;19.83;;
50086;SDS011;35967;50.718;7.050;2022-11-20T03:19:30;46.60;;;20.63;;
50086;SDS011;35967;50.718;7.050;2022-11-20T03:29:35;51.97;;;20.83;;
50086;SDS011;35967;50.718;7.050;2022-11-20T03:39:39;50.93;;;20.33;;
50086;SDS011;35967;50.718;7.050;2022-11-20T03:49:43;47.63;;;21.03;;
50086;SDS011;35967;50.718;7.050;2022-11-20T03:59:46;50.43;;;20.80;;
50086;SDS011;35967;50.718;7.050;2022-11-20T04:09:50;48.53;;;20.13;;
50086;SDS011;35967;50.718;7.050;2022-11-20T04:19:53;55.50;;;21.73;;
50086;SDS011;35967;50.718;7.050;2022-11-20T04:29:58;43.93;;;19.90;;
50086;SDS011;35967;50.718;7.050;2022-11-20T04:40:01;48.70;;;20.30;;
50086;SDS011;35967;50.718;7.050;2022-11-20T04:50:06;55.53;;;21.97;;
50086;SDS011;35967;50.718;7.050;2022-11-20T05:00:11;51.47;;;20.67;;
50086;SDS011;35967;50.718;7.050;2022-11-20T05:10:16;54.43;;;21.87;;
50086;SDS011;35967;50.718;7.050;2022-11-20T05:20:19;55.97;;;21.77;;
50086;SDS011;35967;50.718;7.050;2022-11-20T05:30:23;50.23;;;21.73;;
50086;SDS011;35967;50.718;7.050;2022-11-20T05:40:27;48.23;;;20.57;;
50086;SDS011;35967;50.718;7.050;2022-11-20T05:50:31;49.77;;;21.23;;
50086;SDS011;35967;50.718;7.050;2022-11-20T06:00:34;51.93;;;21.43;;
50086;SDS011;35967;50.718;7.050;2022-11-20T06:10:38;54.23;;;22.10;;
50086;SDS011;35967;50.718;7.050;2022-11-20T06:20:41;48.37;;;20.37;;
50086;SDS011;35967;50.718;7.050;2022-11-20T06:30:46;59.70;;;22.77;;
50086;SDS011;35967;50.718;7.050;2022-11-20T06:40:49;50.77;;;20.53;;
50086;SDS011;35967;50.718;7.050;2022-11-20T06:50:53;52.17;;;21.43;;
50086;SDS011;35967;50.718;7.050;2022-11-20T07:00:57;46.73;;;19.23;;
50086;SDS011;35967;50.718;7.050;2022-11-20T07:11:03;46.27;;;20.00;;
50086;SDS011;35967;50.718;7.050;2022-11-20T07:21:08;38.47;;;18.73;;
50086;SDS011;35967;50.718;7.050;2022-11-20T07:31:14;40.57;;;17.40;;
50086;SDS011;35967;50.718;7.050;2022-11-20T07:41:20;39.97;;;19.30;;
50086;SDS011;35967;50.718;7.050;2022-11-20T07:51:24;36.67;;;17.43;;
50086;SDS011;35967;50.718;7.050;2022-11-20T08:01:27;37.70;;;16.97;;
50086;SDS011;35967;50.718;7.050;2022-11-20T08:11:31;42.03;;;18.40;;
50086;SDS011;35967;50.718;7.050;2022-11-20T08:21:52;39.87;;;17.17;;
50086;SDS011;35967;50.718;7.050;2022-11-20T08:31:56;42.37;;;20.60;;
50086;SDS011;35967;50.718;7.050;2022-11-20T08:41:59;45.50;;;21.40;;
50086;SDS011;35967;50.718;7.050;2022-11-20T08:52:04;51.10;;;22.13;;
50086;SDS011;35967;50.718;7.050;2022-11-20T09:02:07;43.70;;;21.37;;
50086;SDS011;35967;50.718;7.050;2022-11-20T09:12:11;49.20;;;21.30;;
50086;SDS011;35967;50.718;7.050;2022-11-20T09:22:15;43.37;;;19.97;;
50086;SDS011;35967;50.718;7.050;2022-11-20T09:32:20;37.63;;;16.93;;
50086;SDS011;35967;50.718;7.050;2022-11-20T09:42:27;37.83;;;18.27;;
50086;SDS011;35967;50.718;7.050;2022-11-20T09:52:39;36.67;;;16.57;;
50086;SDS011;35967;50.718;7.050;2022-11-20T10:02:55;37.13;;;17.17;;
50086;SDS011;35967;50.718;7.050;2022-11-20T10:13:08;30.87;;;15.20;;
50086;SDS011;35967;50.718;7.050;2022-11-20T10:23:26;37.43;;;16.23;;
50086;SDS011;35967;50.718;7.050;2022-11-20T10:33:40;30.33;;;14.03;;
50086;SDS011;35967;50.718;7.050;2022-11-20T10:44:09;30.60;;;15.03;;
50086;SDS011;35967;50.718;7.050;2022-11-20T10:54:18;32.00;;;15.30;;
50086;SDS011;35967;50.718;7.050;2022-11-20T11:04:33;30.87;;;14.37;;
50086;SDS011;35967;50.718;7.050;2022-11-20T11:14:48;34.47;;;15.63;;
50086;SDS011;35967;50.718;7.050;2022-11-20T11:24:53;31.97;;;13.73;;
50086;SDS011;35967;50.718;7.050;2022-11-20T11:35:01;33.00;;;14.17;;
50086;SDS011;35967;50.718;7.050;2022-11-20T11:45:06;28.77;;;13.27;;
50086;SDS011;35967;50.718;7.050;2022-11-20T11:55:12;31.80;;;13.80;;
50086;SDS011;35967;50.718;7.050;2022-11-20T12:05:20;31.60;;;14.90;;
50086;SDS011;35967;50.718;7.050;2022-11-20T12:15:28;31.47;;;14.10;;
50086;SDS011;35967;50.718;7.050;2022-11-20T12:25:34;33.33;;;14.20;;
50086;SDS011;35967;50.718;7.050;2022-11-20T12:35:44;36.47;;;15.63;;
50086;SDS011;35967;50.718;7.050;2022-11-20T12:46:18;31.30;;;14.90;;
50086;SDS011;35967;50.718;7.050;2022-11-20T12:56:31;29.73;;;14.13;;
50086;SDS011;35967;50.718;7.050;2022-11-20T13:06:44;37.53;;;17.30;;
50086;SDS011;35967;50.718;7.050;2022-11-20T13:16:50;31.67;;;14.23;;
50086;SDS011;35967;50.718;7.050;2022-11-20T13:27:03;32.77;;;14.93;;
50086;SDS011;35967;50.718;7.050;2022-11-20T13:37:29;30.97;;;14.27;;
50086;SDS011;35967;50.718;7.050;2022-11-20T13:47:33;26.33;;;14.03;;
50086;SDS011;35967;50.718;7.050;2022-11-20T13:57:46;26.13;;;12.67;;
50086;SDS011;35967;50.718;7.050;2022-11-20T14:08:17;26.13;;;12.07;;
50086;SDS011;35967;50.718;7.050;2022-11-20T14:18:28;26.17;;;12.10;;
50086;SDS011;35967;50.718;7.050;2022-11-20T14:28:31;25.23;;;12.27;;
50086;SDS011;35967;50.718;7.050;2022-11-20T14:38:35;30.50;;;12.80;;
50086;SDS011;35967;50.718;7.050;2022-11-20T14:48:39;22.70;;;10.97;;
50086;SDS011;35967;50.718;7.050;2022-11-20T14:58:45;25.40;;;12.43;;
50086;SDS011;35967;50.718;7.050;2022-11-20T15:08:59;14.67;;;5.83;;
50086;SDS011;35967;50.718;7.050;2022-11-20T15:19:03;8.60;;;2.90;;
50086;SDS011;35967;50.718;7.050;2022-11-20T15:29:18;6.53;;;1.83;;
50086;SDS011;35967;50.718;7.050;2022-11-20T15:39:25;7.50;;;1.50;;
50086;SDS011;35967;50.718;7.050;2022-11-20T15:49:28;4.07;;;0.83;;
50086;SDS011;35967;50.718;7.050;2022-11-20T15:59:32;4.77;;;1.03;;
50086;SDS011;35967;50.718;7.050;2022-11-20T16:09:35;3.90;;;1.40;;
50086;SDS011;35967;50.718;7.050;2022-11-20T16:19:40;8.43;;;2.30;;
50086;SDS011;35967;50.718;7.050;2022-11-20T16:29:43;6.90;;;1.43;;
50086;SDS011;35967;50.718;7.050;2022-11-20T16:39:47;8.77;;;2.70;;
50086;SDS011;35967;50.718;7.050;2022-11-20T16:49:50;9.33;;;2.17;;
50086;SDS011;35967;50.718;7.050;2022-11-20T16:59:54;6.97;;;2.23;;
50086;SDS011;35967;50.718;7.050;2022-11-20T17:10:03;8.75;;;3.35;;
50086;SDS011;35967;50.718;7.050;2022-11-20T17:20:08;8.77;;;3.30;;
50086;SDS011;35967;50.718;7.050;2022-11-20T17:30:13;10.43;;;2.67;;
50086;SDS011;35967;50.718;7.050;2022-11-20T17:40:18;4.10;;;1.27;;
50086;SDS011;35967;50.718;7.050;2022-11-20T17:50:27;4.03;;;1.90;;
50086;SDS011;35967;50.718;7.050;2022-11-20T18:00:32;4.13;;;1.60;;
50086;SDS011;35967;50.718;7.050;2022-11-20T18:10:35;1.97;;;0.87;;
50086;SDS011;35967;50.718;7.050;2022-11-20T18:20:40;3.00;;;0.90;;
50086;SDS011;35967;50.718;7.050;2022-11-20T18:30:43;4.07;;;0.70;;
50086;SDS011;35967;50.718;7.050;2022-11-20T18:40:47;1.87;;;0.70;;
50086;SDS011;35967;50.718;7.050;2022-11-20T18:50:50;5.27;;;1.00;;
50086;SDS011;35967;50.718;7.050;2022-11-20T19:00:54;4.10;;;1.10;;
50086;SDS011;35967;50.718;7.050;2022-11-20T19:11:04;9.10;;;1.67;;
50086;SDS011;35967;50.718;7.050;2022-11-20T19:21:09;11.67;;;1.77;;
50086;SDS011;35967;50.718;7.050;2022-11-20T19:31:15;10.37;;;1.57;;
50086;SDS011;35967;50.718;7.050;2022-11-20T19:41:27;11.27;;;1.67;;
50086;SDS011;35967;50.718;7.050;2022-11-20T19:51:33;16.73;;;1.60;;
50086;SDS011;35967;50.718;7.050;2022-11-20T20:01:38;11.30;;;1.60;;
50086;SDS011;35967;50.718;7.050;2022-11-20T20:11:43;17.63;;;2.47;;
50086;SDS011;35967;50.718;7.050;2022-11-20T20:21:48;17.10;;;1.83;;
50086;SDS011;35967;50.718;7.050;2022-11-20T20:31:51;17.13;;;2.30;;
50086;SDS011;35967;50.718;7.050;2022-11-20T20:41:56;12.77;;;1.50;;
50086;SDS011;35967;50.718;7.050;2022-11-20T20:51:58;14.77;;;1.43;;
50086;SDS011;35967;50.718;7.050;2022-11-20T21:02:04;11.90;;;1.50;;
50086;SDS011;35967;50.718;7.050;2022-11-20T21:12:07;13.43;;;1.30;;
50086;SDS011;35967;50.718;7.050;2022-11-20T21:22:12;9.37;;;1.30;;
50086;SDS011;35967;50.718;7.050;2022-11-20T21:32:15;13.30;;;1.43;;
50086;SDS011;35967;50.718;7.050;2022-11-20T21:42:19;8.33;;;1.17;;
50086;SDS011;35967;50.718;7.050;2022-11-20T21:52:23;12.97;;;2.17;;
50086;SDS011;35967;50.718;7.050;2022-11-20T22:02:27;14.27;;;1.63;;
50086;SDS011;35967;50.718;7.050;2022-11-20T22:12:30;16.40;;;2.63;;
50086;SDS011;35967;50.718;7.050;2022-11-20T22:22:34;13.43;;;2.43;;
50086;SDS011;35967;50.718;7.050;2022-11-20T22:32:37;19.17;;;1.87;;
50086;SDS011;35967;50.718;7.050;2022-11-20T22:42:44;19.83;;;3.10;;
50086;SDS011;35967;50.718;7.050;2022-11-20T22:52:47;17.83;;;1.70;;
50086;SDS011;35967;50.718;7.050;2022-11-20T23:02:52;21.43;;;2.30;;
50086;SDS011;35967;50.718;7.050;2022-11-20T23:12:54;15.00;;;2.13;;
50086;SDS011;35967;50.718;7.050;2022-11-20T23:22:59;11.83;;;2.10;;
50086;SDS011;35967;50.718;7.050;2022-11-20T23:33:02;20.60;;;3.03;;
50086;SDS011;35967;50.718;7.050;2022-11-20T23:43:07;13.57;;;2.33;;
50086;SDS011;35967;50.718;7.050;2022-11-20T23:53:17;15.77;;;2.93;;
